sensor_id;sensor_type;location;lat;lon;timestamp;temperature;humidity
68235;DHT22;55052;52.056;5.296;2022-07-18T00:02:01;18.20;57.90
68235;DHT22;55052;52.056;5.296;2022-07-18T00:04:29;18.10;58.00
68235;DHT22;55052;52.056;5.296;2022-07-18T00:06:56;18.10;58.20
68235;DHT22;55052;52.056;5.296;2022-07-18T00:09:23;18.00;58.30
68235;DHT22;55052;52.056;5.296;2022-07-18T00:11:51;18.00;58.60
68235;DHT22;55052;52.056;5.296;2022-07-18T00:14:19;17.90;58.40
68235;DHT22;55052;52.056;5.296;2022-07-18T00:16:47;17.90;58.60
68235;DHT22;55052;52.056;5.296;2022-07-18T00:19:14;17.80;58.90
68235;DHT22;55052;52.056;5.296;2022-07-18T00:21:41;17.80;58.90
68235;DHT22;55052;52.056;5.296;2022-07-18T00:24:08;17.80;59.00
68235;DHT22;55052;52.056;5.296;2022-07-18T00:26:34;17.70;59.10
68235;DHT22;55052;52.056;5.296;2022-07-18T00:29:01;17.70;59.20
68235;DHT22;55052;52.056;5.296;2022-07-18T00:31:31;17.70;59.20
68235;DHT22;55052;52.056;5.296;2022-07-18T00:33:58;17.60;59.20
68235;DHT22;55052;52.056;5.296;2022-07-18T00:36:25;17.60;59.30
68235;DHT22;55052;52.056;5.296;2022-07-18T00:38:52;17.50;59.40
68235;DHT22;55052;52.056;5.296;2022-07-18T00:41:19;17.50;59.30
68235;DHT22;55052;52.056;5.296;2022-07-18T00:43:46;17.50;59.40
68235;DHT22;55052;52.056;5.296;2022-07-18T00:46:13;17.50;59.40
68235;DHT22;55052;52.056;5.296;2022-07-18T00:48:41;17.40;59.40
68235;DHT22;55052;52.056;5.296;2022-07-18T00:51:09;17.40;59.50
68235;DHT22;55052;52.056;5.296;2022-07-18T00:53:37;17.40;59.70
68235;DHT22;55052;52.056;5.296;2022-07-18T00:56:04;17.30;59.70
68235;DHT22;55052;52.056;5.296;2022-07-18T00:58:32;17.30;59.80
68235;DHT22;55052;52.056;5.296;2022-07-18T01:00:59;17.30;59.80
68235;DHT22;55052;52.056;5.296;2022-07-18T01:04:01;17.20;59.70
68235;DHT22;55052;52.056;5.296;2022-07-18T01:06:27;17.20;60.10
68235;DHT22;55052;52.056;5.296;2022-07-18T01:08:57;17.10;60.30
68235;DHT22;55052;52.056;5.296;2022-07-18T01:11:24;17.10;60.30
68235;DHT22;55052;52.056;5.296;2022-07-18T01:13:51;17.10;60.30
68235;DHT22;55052;52.056;5.296;2022-07-18T01:16:18;17.10;60.30
68235;DHT22;55052;52.056;5.296;2022-07-18T01:18:48;17.00;60.40
68235;DHT22;55052;52.056;5.296;2022-07-18T01:21:16;17.00;60.40
68235;DHT22;55052;52.056;5.296;2022-07-18T01:23:43;17.00;60.40
68235;DHT22;55052;52.056;5.296;2022-07-18T01:26:14;16.90;60.50
68235;DHT22;55052;52.056;5.296;2022-07-18T01:28:41;16.90;60.70
68235;DHT22;55052;52.056;5.296;2022-07-18T01:31:09;16.90;60.60
68235;DHT22;55052;52.056;5.296;2022-07-18T01:33:36;16.80;60.70
68235;DHT22;55052;52.056;5.296;2022-07-18T01:36:04;16.80;60.60
68235;DHT22;55052;52.056;5.296;2022-07-18T01:38:33;16.80;60.70
68235;DHT22;55052;52.056;5.296;2022-07-18T01:41:00;16.80;60.80
68235;DHT22;55052;52.056;5.296;2022-07-18T01:43:27;16.70;60.70
68235;DHT22;55052;52.056;5.296;2022-07-18T01:45:55;16.70;60.70
68235;DHT22;55052;52.056;5.296;2022-07-18T01:48:22;16.70;60.90
68235;DHT22;55052;52.056;5.296;2022-07-18T01:50:51;16.60;61.20
68235;DHT22;55052;52.056;5.296;2022-07-18T01:53:18;16.60;61.10
68235;DHT22;55052;52.056;5.296;2022-07-18T01:55:45;16.60;61.10
68235;DHT22;55052;52.056;5.296;2022-07-18T01:58:12;16.50;61.10
68235;DHT22;55052;52.056;5.296;2022-07-18T02:00:39;16.50;61.30
68235;DHT22;55052;52.056;5.296;2022-07-18T02:03:06;16.40;61.30
68235;DHT22;55052;52.056;5.296;2022-07-18T02:05:33;16.40;61.20
68235;DHT22;55052;52.056;5.296;2022-07-18T02:07:59;16.40;61.40
68235;DHT22;55052;52.056;5.296;2022-07-18T02:10:26;16.40;61.50
68235;DHT22;55052;52.056;5.296;2022-07-18T02:12:53;16.40;61.50
68235;DHT22;55052;52.056;5.296;2022-07-18T02:15:20;16.30;61.60
68235;DHT22;55052;52.056;5.296;2022-07-18T02:17:47;16.30;61.70
68235;DHT22;55052;52.056;5.296;2022-07-18T02:20:14;16.30;61.60
68235;DHT22;55052;52.056;5.296;2022-07-18T02:22:42;16.30;61.50
68235;DHT22;55052;52.056;5.296;2022-07-18T02:25:09;16.30;62.40
68235;DHT22;55052;52.056;5.296;2022-07-18T02:27:37;16.20;61.70
68235;DHT22;55052;52.056;5.296;2022-07-18T02:30:05;16.20;61.80
68235;DHT22;55052;52.056;5.296;2022-07-18T02:32:32;16.20;61.80
68235;DHT22;55052;52.056;5.296;2022-07-18T02:35:01;16.20;61.80
68235;DHT22;55052;52.056;5.296;2022-07-18T02:37:28;16.10;61.70
68235;DHT22;55052;52.056;5.296;2022-07-18T02:39:54;16.10;61.70
68235;DHT22;55052;52.056;5.296;2022-07-18T02:42:21;16.10;61.80
68235;DHT22;55052;52.056;5.296;2022-07-18T02:44:48;16.00;61.90
68235;DHT22;55052;52.056;5.296;2022-07-18T02:47:15;16.00;61.90
68235;DHT22;55052;52.056;5.296;2022-07-18T02:49:42;16.00;62.20
68235;DHT22;55052;52.056;5.296;2022-07-18T02:52:08;16.00;62.10
68235;DHT22;55052;52.056;5.296;2022-07-18T02:54:37;15.90;62.10
68235;DHT22;55052;52.056;5.296;2022-07-18T02:57:04;15.90;62.20
68235;DHT22;55052;52.056;5.296;2022-07-18T02:59:32;15.90;62.20
68235;DHT22;55052;52.056;5.296;2022-07-18T03:01:59;15.90;62.20
68235;DHT22;55052;52.056;5.296;2022-07-18T03:04:26;15.80;62.10
68235;DHT22;55052;52.056;5.296;2022-07-18T03:06:53;15.80;62.40
68235;DHT22;55052;52.056;5.296;2022-07-18T03:09:20;15.80;62.50
68235;DHT22;55052;52.056;5.296;2022-07-18T03:11:47;15.80;62.40
68235;DHT22;55052;52.056;5.296;2022-07-18T03:14:14;15.80;62.50
68235;DHT22;55052;52.056;5.296;2022-07-18T03:16:41;15.70;62.50
68235;DHT22;55052;52.056;5.296;2022-07-18T03:19:08;15.70;62.60
68235;DHT22;55052;52.056;5.296;2022-07-18T03:21:34;15.70;62.60
68235;DHT22;55052;52.056;5.296;2022-07-18T03:24:01;15.70;62.60
68235;DHT22;55052;52.056;5.296;2022-07-18T03:26:28;15.60;62.60
68235;DHT22;55052;52.056;5.296;2022-07-18T03:28:55;15.60;62.60
68235;DHT22;55052;52.056;5.296;2022-07-18T03:31:22;15.60;62.70
68235;DHT22;55052;52.056;5.296;2022-07-18T03:33:48;15.60;62.70
68235;DHT22;55052;52.056;5.296;2022-07-18T03:36:16;15.50;62.90
68235;DHT22;55052;52.056;5.296;2022-07-18T03:38:42;15.50;62.80
68235;DHT22;55052;52.056;5.296;2022-07-18T03:41:11;15.50;62.90
68235;DHT22;55052;52.056;5.296;2022-07-18T03:43:39;15.50;63.00
68235;DHT22;55052;52.056;5.296;2022-07-18T03:46:07;15.40;63.00
68235;DHT22;55052;52.056;5.296;2022-07-18T03:48:34;15.40;63.20
68235;DHT22;55052;52.056;5.296;2022-07-18T03:51:01;15.40;63.20
68235;DHT22;55052;52.056;5.296;2022-07-18T03:53:29;15.40;63.30
68235;DHT22;55052;52.056;5.296;2022-07-18T03:55:55;15.40;63.30
68235;DHT22;55052;52.056;5.296;2022-07-18T03:58:22;15.30;63.20
68235;DHT22;55052;52.056;5.296;2022-07-18T04:00:49;15.30;63.30
68235;DHT22;55052;52.056;5.296;2022-07-18T04:03:16;15.30;63.40
68235;DHT22;55052;52.056;5.296;2022-07-18T04:05:46;15.30;63.40
68235;DHT22;55052;52.056;5.296;2022-07-18T04:08:12;15.30;63.50
68235;DHT22;55052;52.056;5.296;2022-07-18T04:10:39;15.30;63.80
68235;DHT22;55052;52.056;5.296;2022-07-18T04:13:07;15.30;63.90
68235;DHT22;55052;52.056;5.296;2022-07-18T04:15:35;15.30;63.90
68235;DHT22;55052;52.056;5.296;2022-07-18T04:18:02;15.30;63.80
68235;DHT22;55052;52.056;5.296;2022-07-18T04:20:29;15.30;63.70
68235;DHT22;55052;52.056;5.296;2022-07-18T04:22:58;15.30;63.90
68235;DHT22;55052;52.056;5.296;2022-07-18T04:25:27;15.30;63.90
68235;DHT22;55052;52.056;5.296;2022-07-18T04:27:55;15.30;63.90
68235;DHT22;55052;52.056;5.296;2022-07-18T04:30:23;15.30;64.00
68235;DHT22;55052;52.056;5.296;2022-07-18T04:32:50;15.30;64.10
68235;DHT22;55052;52.056;5.296;2022-07-18T04:35:20;15.30;64.10
68235;DHT22;55052;52.056;5.296;2022-07-18T04:37:48;15.40;64.10
68235;DHT22;55052;52.056;5.296;2022-07-18T04:40:15;15.40;64.10
68235;DHT22;55052;52.056;5.296;2022-07-18T04:42:42;15.40;64.00
68235;DHT22;55052;52.056;5.296;2022-07-18T04:45:09;15.50;64.10
68235;DHT22;55052;52.056;5.296;2022-07-18T04:47:36;15.50;64.10
68235;DHT22;55052;52.056;5.296;2022-07-18T04:50:04;15.60;64.30
68235;DHT22;55052;52.056;5.296;2022-07-18T04:52:43;15.60;64.40
68235;DHT22;55052;52.056;5.296;2022-07-18T04:55:11;15.70;64.50
68235;DHT22;55052;52.056;5.296;2022-07-18T04:57:39;15.70;65.30
68235;DHT22;55052;52.056;5.296;2022-07-18T05:00:12;15.80;64.40
68235;DHT22;55052;52.056;5.296;2022-07-18T05:02:42;15.90;64.40
68235;DHT22;55052;52.056;5.296;2022-07-18T05:05:11;16.00;64.40
68235;DHT22;55052;52.056;5.296;2022-07-18T05:07:39;16.00;64.40
68235;DHT22;55052;52.056;5.296;2022-07-18T05:10:08;16.10;64.30
68235;DHT22;55052;52.056;5.296;2022-07-18T05:12:36;16.10;64.30
68235;DHT22;55052;52.056;5.296;2022-07-18T05:15:12;16.30;64.40
68235;DHT22;55052;52.056;5.296;2022-07-18T05:17:40;16.30;64.40
68235;DHT22;55052;52.056;5.296;2022-07-18T05:20:10;16.40;64.50
68235;DHT22;55052;52.056;5.296;2022-07-18T05:22:37;16.50;64.40
68235;DHT22;55052;52.056;5.296;2022-07-18T05:25:07;16.60;64.60
68235;DHT22;55052;52.056;5.296;2022-07-18T05:27:34;16.60;64.40
68235;DHT22;55052;52.056;5.296;2022-07-18T05:30:05;16.70;64.60
68235;DHT22;55052;52.056;5.296;2022-07-18T05:32:33;16.80;64.70
68235;DHT22;55052;52.056;5.296;2022-07-18T05:35:00;16.90;64.60
68235;DHT22;55052;52.056;5.296;2022-07-18T05:37:26;17.00;64.50
68235;DHT22;55052;52.056;5.296;2022-07-18T05:39:53;17.10;64.40
68235;DHT22;55052;52.056;5.296;2022-07-18T05:42:20;17.20;64.50
68235;DHT22;55052;52.056;5.296;2022-07-18T05:45:07;17.30;64.30
68235;DHT22;55052;52.056;5.296;2022-07-18T05:47:34;17.40;64.00
68235;DHT22;55052;52.056;5.296;2022-07-18T05:50:01;17.50;64.00
68235;DHT22;55052;52.056;5.296;2022-07-18T05:52:28;17.60;63.80
68235;DHT22;55052;52.056;5.296;2022-07-18T05:54:55;17.70;63.50
68235;DHT22;55052;52.056;5.296;2022-07-18T05:57:22;17.80;63.30
68235;DHT22;55052;52.056;5.296;2022-07-18T05:59:49;18.00;63.00
68235;DHT22;55052;52.056;5.296;2022-07-18T06:02:15;18.10;62.80
68235;DHT22;55052;52.056;5.296;2022-07-18T06:04:42;18.20;62.50
68235;DHT22;55052;52.056;5.296;2022-07-18T06:07:29;18.30;62.20
68235;DHT22;55052;52.056;5.296;2022-07-18T06:09:56;18.40;61.80
68235;DHT22;55052;52.056;5.296;2022-07-18T06:12:23;18.60;61.50
68235;DHT22;55052;52.056;5.296;2022-07-18T06:14:50;18.70;61.30
68235;DHT22;55052;52.056;5.296;2022-07-18T06:17:16;18.80;60.90
68235;DHT22;55052;52.056;5.296;2022-07-18T06:19:43;19.00;60.80
68235;DHT22;55052;52.056;5.296;2022-07-18T06:22:10;19.10;60.60
68235;DHT22;55052;52.056;5.296;2022-07-18T06:24:37;19.20;60.30
68235;DHT22;55052;52.056;5.296;2022-07-18T06:27:04;19.30;60.00
68235;DHT22;55052;52.056;5.296;2022-07-18T06:29:31;19.40;59.80
68235;DHT22;55052;52.056;5.296;2022-07-18T06:31:58;19.50;59.50
68235;DHT22;55052;52.056;5.296;2022-07-18T06:34:24;19.70;59.40
68235;DHT22;55052;52.056;5.296;2022-07-18T06:36:51;19.80;59.10
68235;DHT22;55052;52.056;5.296;2022-07-18T06:39:18;19.90;58.60
68235;DHT22;55052;52.056;5.296;2022-07-18T06:41:45;20.00;58.40
68235;DHT22;55052;52.056;5.296;2022-07-18T06:44:12;20.10;58.30
68235;DHT22;55052;52.056;5.296;2022-07-18T06:46:39;20.20;58.30
68235;DHT22;55052;52.056;5.296;2022-07-18T06:49:06;20.30;58.30
68235;DHT22;55052;52.056;5.296;2022-07-18T06:51:34;20.40;58.20
68235;DHT22;55052;52.056;5.296;2022-07-18T06:54:01;20.60;57.90
68235;DHT22;55052;52.056;5.296;2022-07-18T06:56:28;20.70;57.70
68235;DHT22;55052;52.056;5.296;2022-07-18T06:58:54;20.80;57.50
68235;DHT22;55052;52.056;5.296;2022-07-18T07:01:21;20.90;57.40
68235;DHT22;55052;52.056;5.296;2022-07-18T07:03:48;21.00;57.30
68235;DHT22;55052;52.056;5.296;2022-07-18T07:06:15;21.10;57.10
68235;DHT22;55052;52.056;5.296;2022-07-18T07:08:43;21.30;57.10
68235;DHT22;55052;52.056;5.296;2022-07-18T07:11:10;21.40;57.10
68235;DHT22;55052;52.056;5.296;2022-07-18T07:13:37;21.40;56.90
68235;DHT22;55052;52.056;5.296;2022-07-18T07:16:04;21.50;56.90
68235;DHT22;55052;52.056;5.296;2022-07-18T07:18:31;21.70;56.80
68235;DHT22;55052;52.056;5.296;2022-07-18T07:20:58;21.80;56.60
68235;DHT22;55052;52.056;5.296;2022-07-18T07:23:26;21.90;56.30
68235;DHT22;55052;52.056;5.296;2022-07-18T07:25:52;21.90;56.10
68235;DHT22;55052;52.056;5.296;2022-07-18T07:28:21;22.00;56.00
68235;DHT22;55052;52.056;5.296;2022-07-18T07:30:48;22.10;55.70
68235;DHT22;55052;52.056;5.296;2022-07-18T07:33:14;22.20;55.40
68235;DHT22;55052;52.056;5.296;2022-07-18T07:35:41;22.30;55.20
68235;DHT22;55052;52.056;5.296;2022-07-18T07:38:08;22.40;54.90
68235;DHT22;55052;52.056;5.296;2022-07-18T07:40:35;22.50;55.60
68235;DHT22;55052;52.056;5.296;2022-07-18T07:43:07;22.60;54.60
68235;DHT22;55052;52.056;5.296;2022-07-18T07:45:34;22.70;54.20
68235;DHT22;55052;52.056;5.296;2022-07-18T07:48:02;22.80;53.70
68235;DHT22;55052;52.056;5.296;2022-07-18T07:50:29;22.90;53.40
68235;DHT22;55052;52.056;5.296;2022-07-18T07:52:57;23.00;53.10
68235;DHT22;55052;52.056;5.296;2022-07-18T07:55:24;23.10;52.80
68235;DHT22;55052;52.056;5.296;2022-07-18T07:57:52;23.20;52.70
68235;DHT22;55052;52.056;5.296;2022-07-18T08:00:18;23.30;52.50
68235;DHT22;55052;52.056;5.296;2022-07-18T08:05:25;23.50;51.50
68235;DHT22;55052;52.056;5.296;2022-07-18T08:07:52;23.60;51.60
68235;DHT22;55052;52.056;5.296;2022-07-18T08:10:19;23.70;51.60
68235;DHT22;55052;52.056;5.296;2022-07-18T08:12:46;23.80;51.10
68235;DHT22;55052;52.056;5.296;2022-07-18T08:15:13;24.00;51.30
68235;DHT22;55052;52.056;5.296;2022-07-18T08:17:40;24.10;50.80
68235;DHT22;55052;52.056;5.296;2022-07-18T08:20:14;24.20;50.40
68235;DHT22;55052;52.056;5.296;2022-07-18T08:22:56;24.30;50.40
68235;DHT22;55052;52.056;5.296;2022-07-18T08:25:23;24.40;49.50
68235;DHT22;55052;52.056;5.296;2022-07-18T08:27:50;24.50;49.50
68235;DHT22;55052;52.056;5.296;2022-07-18T08:30:17;24.60;48.80
68235;DHT22;55052;52.056;5.296;2022-07-18T08:32:44;24.70;48.20
68235;DHT22;55052;52.056;5.296;2022-07-18T08:35:11;24.90;48.00
68235;DHT22;55052;52.056;5.296;2022-07-18T08:37:38;25.00;47.50
68235;DHT22;55052;52.056;5.296;2022-07-18T08:40:05;25.10;46.90
68235;DHT22;55052;52.056;5.296;2022-07-18T08:42:34;25.20;46.90
68235;DHT22;55052;52.056;5.296;2022-07-18T08:45:11;25.30;46.50
68235;DHT22;55052;52.056;5.296;2022-07-18T08:47:38;25.40;46.60
68235;DHT22;55052;52.056;5.296;2022-07-18T08:50:06;25.50;46.90
68235;DHT22;55052;52.056;5.296;2022-07-18T08:52:33;25.70;46.60
68235;DHT22;55052;52.056;5.296;2022-07-18T08:55:19;25.80;46.10
68235;DHT22;55052;52.056;5.296;2022-07-18T08:57:53;25.80;45.70
68235;DHT22;55052;52.056;5.296;2022-07-18T09:00:21;26.00;45.90
68235;DHT22;55052;52.056;5.296;2022-07-18T09:03:02;26.10;45.70
68235;DHT22;55052;52.056;5.296;2022-07-18T09:05:30;26.20;44.70
68235;DHT22;55052;52.056;5.296;2022-07-18T09:08:17;26.30;46.30
68235;DHT22;55052;52.056;5.296;2022-07-18T09:10:54;26.40;45.30
68235;DHT22;55052;52.056;5.296;2022-07-18T09:13:23;26.60;44.30
68235;DHT22;55052;52.056;5.296;2022-07-18T09:16:16;26.80;43.70
68235;DHT22;55052;52.056;5.296;2022-07-18T09:18:46;26.90;43.30
68235;DHT22;55052;52.056;5.296;2022-07-18T09:21:19;27.00;42.40
68235;DHT22;55052;52.056;5.296;2022-07-18T09:23:51;27.00;41.80
68235;DHT22;55052;52.056;5.296;2022-07-18T09:26:42;27.10;41.40
68235;DHT22;55052;52.056;5.296;2022-07-18T09:29:15;27.10;39.40
68235;DHT22;55052;52.056;5.296;2022-07-18T09:32:02;27.10;40.40
68235;DHT22;55052;52.056;5.296;2022-07-18T09:34:37;27.20;40.50
68235;DHT22;55052;52.056;5.296;2022-07-18T09:37:10;27.20;41.00
68235;DHT22;55052;52.056;5.296;2022-07-18T09:39:37;27.20;40.50
68235;DHT22;55052;52.056;5.296;2022-07-18T09:42:18;27.30;40.60
68235;DHT22;55052;52.056;5.296;2022-07-18T09:45:14;27.40;40.10
68235;DHT22;55052;52.056;5.296;2022-07-18T09:48:04;27.50;39.90
68235;DHT22;55052;52.056;5.296;2022-07-18T09:50:37;27.60;40.30
68235;DHT22;55052;52.056;5.296;2022-07-18T09:53:16;27.70;40.80
68235;DHT22;55052;52.056;5.296;2022-07-18T09:56:04;27.70;41.00
68235;DHT22;55052;52.056;5.296;2022-07-18T09:58:38;27.80;41.10
68235;DHT22;55052;52.056;5.296;2022-07-18T10:01:07;27.80;40.90
68235;DHT22;55052;52.056;5.296;2022-07-18T10:03:35;27.90;41.10
68235;DHT22;55052;52.056;5.296;2022-07-18T10:06:03;27.90;40.80
68235;DHT22;55052;52.056;5.296;2022-07-18T10:08:32;27.90;40.30
68235;DHT22;55052;52.056;5.296;2022-07-18T10:11:00;27.90;39.80
68235;DHT22;55052;52.056;5.296;2022-07-18T10:13:29;28.00;39.90
68235;DHT22;55052;52.056;5.296;2022-07-18T10:15:57;28.10;39.90
68235;DHT22;55052;52.056;5.296;2022-07-18T10:18:27;28.20;39.70
68235;DHT22;55052;52.056;5.296;2022-07-18T10:23:45;28.30;38.80
68235;DHT22;55052;52.056;5.296;2022-07-18T10:31:32;28.60;38.40
68235;DHT22;55052;52.056;5.296;2022-07-18T10:39:32;28.90;37.60
68235;DHT22;55052;52.056;5.296;2022-07-18T11:00:12;29.60;35.10
68235;DHT22;55052;52.056;5.296;2022-07-18T11:02:43;29.70;35.20
68235;DHT22;55052;52.056;5.296;2022-07-18T11:18:30;30.10;33.70
68235;DHT22;55052;52.056;5.296;2022-07-18T11:20:57;30.20;33.80
68235;DHT22;55052;52.056;5.296;2022-07-18T11:23:26;30.30;34.00
68235;DHT22;55052;52.056;5.296;2022-07-18T11:25:59;30.40;33.60
68235;DHT22;55052;52.056;5.296;2022-07-18T11:28:27;30.50;33.80
68235;DHT22;55052;52.056;5.296;2022-07-18T11:31:00;30.60;33.50
68235;DHT22;55052;52.056;5.296;2022-07-18T11:33:30;30.70;33.10
68235;DHT22;55052;52.056;5.296;2022-07-18T11:36:09;30.80;33.00
68235;DHT22;55052;52.056;5.296;2022-07-18T11:38:39;30.90;32.30
68235;DHT22;55052;52.056;5.296;2022-07-18T11:41:06;31.00;32.50
68235;DHT22;55052;52.056;5.296;2022-07-18T11:43:33;31.00;32.00
68235;DHT22;55052;52.056;5.296;2022-07-18T11:46:05;31.10;32.20
68235;DHT22;55052;52.056;5.296;2022-07-18T11:48:42;31.10;32.00
68235;DHT22;55052;52.056;5.296;2022-07-18T11:53:44;31.20;30.90
68235;DHT22;55052;52.056;5.296;2022-07-18T11:56:11;31.20;31.40
68235;DHT22;55052;52.056;5.296;2022-07-18T11:58:38;31.30;31.20
68235;DHT22;55052;52.056;5.296;2022-07-18T12:01:06;31.40;31.60
68235;DHT22;55052;52.056;5.296;2022-07-18T12:03:39;31.40;32.30
68235;DHT22;55052;52.056;5.296;2022-07-18T12:06:11;31.50;31.70
68235;DHT22;55052;52.056;5.296;2022-07-18T12:13:40;31.70;30.70
68235;DHT22;55052;52.056;5.296;2022-07-18T12:16:07;31.70;30.60
68235;DHT22;55052;52.056;5.296;2022-07-18T12:18:34;31.80;31.30
68235;DHT22;55052;52.056;5.296;2022-07-18T12:21:10;31.90;30.90
68235;DHT22;55052;52.056;5.296;2022-07-18T12:23:37;32.00;29.70
68235;DHT22;55052;52.056;5.296;2022-07-18T12:26:04;32.00;30.00
68235;DHT22;55052;52.056;5.296;2022-07-18T12:28:31;32.10;29.90
68235;DHT22;55052;52.056;5.296;2022-07-18T12:30:58;32.10;29.60
68235;DHT22;55052;52.056;5.296;2022-07-18T12:33:27;32.20;29.80
68235;DHT22;55052;52.056;5.296;2022-07-18T12:35:56;32.20;30.10
68235;DHT22;55052;52.056;5.296;2022-07-18T12:38:23;32.30;30.70
68235;DHT22;55052;52.056;5.296;2022-07-18T12:40:51;32.40;30.30
68235;DHT22;55052;52.056;5.296;2022-07-18T12:43:32;32.40;29.90
68235;DHT22;55052;52.056;5.296;2022-07-18T12:46:01;32.60;30.00
68235;DHT22;55052;52.056;5.296;2022-07-18T12:48:30;32.60;30.20
68235;DHT22;55052;52.056;5.296;2022-07-18T12:51:02;32.70;29.80
68235;DHT22;55052;52.056;5.296;2022-07-18T12:53:31;32.80;31.30
68235;DHT22;55052;52.056;5.296;2022-07-18T12:55:58;32.90;30.00
68235;DHT22;55052;52.056;5.296;2022-07-18T12:58:25;33.00;29.60
68235;DHT22;55052;52.056;5.296;2022-07-18T13:00:52;33.10;29.10
68235;DHT22;55052;52.056;5.296;2022-07-18T13:03:25;33.20;29.60
68235;DHT22;55052;52.056;5.296;2022-07-18T13:05:52;33.30;29.50
68235;DHT22;55052;52.056;5.296;2022-07-18T13:08:19;33.40;29.70
68235;DHT22;55052;52.056;5.296;2022-07-18T13:10:46;33.50;29.60
68235;DHT22;55052;52.056;5.296;2022-07-18T13:13:12;33.60;29.10
68235;DHT22;55052;52.056;5.296;2022-07-18T13:15:39;33.80;28.80
68235;DHT22;55052;52.056;5.296;2022-07-18T13:18:07;33.90;28.20
68235;DHT22;55052;52.056;5.296;2022-07-18T13:20:33;34.10;27.60
68235;DHT22;55052;52.056;5.296;2022-07-18T13:23:00;34.20;27.90
68235;DHT22;55052;52.056;5.296;2022-07-18T13:25:28;34.30;27.30
68235;DHT22;55052;52.056;5.296;2022-07-18T13:27:55;34.40;26.70
68235;DHT22;55052;52.056;5.296;2022-07-18T13:30:22;34.60;26.70
68235;DHT22;55052;52.056;5.296;2022-07-18T13:32:48;34.80;27.10
68235;DHT22;55052;52.056;5.296;2022-07-18T13:35:15;35.00;26.70
68235;DHT22;55052;52.056;5.296;2022-07-18T13:37:43;35.10;26.50
68235;DHT22;55052;52.056;5.296;2022-07-18T13:40:10;35.30;26.30
68235;DHT22;55052;52.056;5.296;2022-07-18T13:42:37;35.50;26.40
68235;DHT22;55052;52.056;5.296;2022-07-18T13:45:04;35.70;26.40
68235;DHT22;55052;52.056;5.296;2022-07-18T13:47:31;35.90;26.30
68235;DHT22;55052;52.056;5.296;2022-07-18T13:49:58;36.10;26.90
68235;DHT22;55052;52.056;5.296;2022-07-18T13:52:25;36.30;26.60
68235;DHT22;55052;52.056;5.296;2022-07-18T13:54:52;36.50;25.70
68235;DHT22;55052;52.056;5.296;2022-07-18T13:57:22;36.60;25.80
68235;DHT22;55052;52.056;5.296;2022-07-18T13:59:49;36.70;25.50
68235;DHT22;55052;52.056;5.296;2022-07-18T14:02:16;36.80;25.50
68235;DHT22;55052;52.056;5.296;2022-07-18T14:04:44;36.90;25.30
68235;DHT22;55052;52.056;5.296;2022-07-18T14:07:31;37.00;25.70
68235;DHT22;55052;52.056;5.296;2022-07-18T14:09:57;37.10;26.00
68235;DHT22;55052;52.056;5.296;2022-07-18T14:12:24;37.30;26.40
68235;DHT22;55052;52.056;5.296;2022-07-18T14:14:51;37.40;26.10
68235;DHT22;55052;52.056;5.296;2022-07-18T14:17:17;37.50;25.30
68235;DHT22;55052;52.056;5.296;2022-07-18T14:19:44;37.50;24.90
68235;DHT22;55052;52.056;5.296;2022-07-18T14:22:11;37.60;24.80
68235;DHT22;55052;52.056;5.296;2022-07-18T14:24:39;37.60;25.60
68235;DHT22;55052;52.056;5.296;2022-07-18T14:27:05;37.60;26.10
68235;DHT22;55052;52.056;5.296;2022-07-18T14:29:33;37.50;26.00
68235;DHT22;55052;52.056;5.296;2022-07-18T14:31:59;37.30;25.30
68235;DHT22;55052;52.056;5.296;2022-07-18T14:34:27;37.00;25.40
68235;DHT22;55052;52.056;5.296;2022-07-18T14:36:54;36.80;25.60
68235;DHT22;55052;52.056;5.296;2022-07-18T14:39:21;36.50;25.50
68235;DHT22;55052;52.056;5.296;2022-07-18T14:41:48;36.30;25.70
68235;DHT22;55052;52.056;5.296;2022-07-18T14:44:15;36.10;26.20
68235;DHT22;55052;52.056;5.296;2022-07-18T14:46:42;35.90;26.00
68235;DHT22;55052;52.056;5.296;2022-07-18T14:49:09;35.70;26.00
68235;DHT22;55052;52.056;5.296;2022-07-18T14:51:35;35.50;25.40
68235;DHT22;55052;52.056;5.296;2022-07-18T14:54:02;35.30;25.30
68235;DHT22;55052;52.056;5.296;2022-07-18T14:56:29;35.10;25.50
68235;DHT22;55052;52.056;5.296;2022-07-18T14:58:56;35.00;25.20
68235;DHT22;55052;52.056;5.296;2022-07-18T15:01:22;34.80;25.50
68235;DHT22;55052;52.056;5.296;2022-07-18T15:03:49;34.70;25.80
68235;DHT22;55052;52.056;5.296;2022-07-18T15:06:26;34.60;25.40
68235;DHT22;55052;52.056;5.296;2022-07-18T15:08:53;34.40;25.50
68235;DHT22;55052;52.056;5.296;2022-07-18T15:11:20;34.30;26.10
68235;DHT22;55052;52.056;5.296;2022-07-18T15:13:51;34.20;26.40
68235;DHT22;55052;52.056;5.296;2022-07-18T15:16:18;34.10;26.00
68235;DHT22;55052;52.056;5.296;2022-07-18T15:18:45;34.10;25.80
68235;DHT22;55052;52.056;5.296;2022-07-18T15:21:12;34.00;26.50
68235;DHT22;55052;52.056;5.296;2022-07-18T15:23:39;34.00;26.80
68235;DHT22;55052;52.056;5.296;2022-07-18T15:26:06;33.90;26.40
68235;DHT22;55052;52.056;5.296;2022-07-18T15:28:33;33.80;26.30
68235;DHT22;55052;52.056;5.296;2022-07-18T15:31:00;33.70;25.90
68235;DHT22;55052;52.056;5.296;2022-07-18T15:33:27;33.70;26.20
68235;DHT22;55052;52.056;5.296;2022-07-18T15:35:54;33.70;27.10
68235;DHT22;55052;52.056;5.296;2022-07-18T15:38:21;33.60;26.00
68235;DHT22;55052;52.056;5.296;2022-07-18T15:40:48;33.60;26.40
68235;DHT22;55052;52.056;5.296;2022-07-18T15:43:14;33.60;25.60
68235;DHT22;55052;52.056;5.296;2022-07-18T15:45:41;33.50;25.20
68235;DHT22;55052;52.056;5.296;2022-07-18T15:48:08;33.50;25.10
68235;DHT22;55052;52.056;5.296;2022-07-18T15:50:35;33.50;25.20
68235;DHT22;55052;52.056;5.296;2022-07-18T15:53:02;33.50;25.50
68235;DHT22;55052;52.056;5.296;2022-07-18T15:55:29;33.50;25.70
68235;DHT22;55052;52.056;5.296;2022-07-18T15:57:57;33.50;25.80
68235;DHT22;55052;52.056;5.296;2022-07-18T16:00:24;33.50;25.70
68235;DHT22;55052;52.056;5.296;2022-07-18T16:02:52;33.50;25.80
68235;DHT22;55052;52.056;5.296;2022-07-18T16:05:19;33.50;25.80
68235;DHT22;55052;52.056;5.296;2022-07-18T16:07:45;33.50;25.80
68235;DHT22;55052;52.056;5.296;2022-07-18T16:10:12;33.50;25.90
68235;DHT22;55052;52.056;5.296;2022-07-18T16:12:39;33.60;26.30
68235;DHT22;55052;52.056;5.296;2022-07-18T16:15:07;33.60;26.80
68235;DHT22;55052;52.056;5.296;2022-07-18T16:17:34;33.60;26.80
68235;DHT22;55052;52.056;5.296;2022-07-18T16:20:02;33.60;27.00
68235;DHT22;55052;52.056;5.296;2022-07-18T16:22:29;33.50;26.70
68235;DHT22;55052;52.056;5.296;2022-07-18T16:24:55;33.50;26.50
68235;DHT22;55052;52.056;5.296;2022-07-18T16:27:22;33.50;26.50
68235;DHT22;55052;52.056;5.296;2022-07-18T16:29:50;33.50;26.50
68235;DHT22;55052;52.056;5.296;2022-07-18T16:32:22;33.50;26.60
68235;DHT22;55052;52.056;5.296;2022-07-18T16:34:49;33.50;26.90